Time;durP1;ratioP1;P1;durP2;ratioP2;P2;SDS_P1;SDS_P2;PMS_P1;PMS_P2;Temp;Humidity;BMP_temperature;BMP_pressure;BME280_temperature;BME280_humidity;BME280_pressure;Samples;Min_cycle;Max_cycle;Signal;HPM_P1;HPM_P2
2022/09/05 00:01:40;;;;;;;24.08;4.72;;;;;;;;;;4926448;28;20137;-64
2022/09/05 00:04:06;;;;;;;22.27;4.45;;;;;;;;;;4923131;28;20114;-64
2022/09/05 00:06:36;;;;;;;23.88;3.83;;;;;;;;;;4907782;28;20042;-64
2022/09/05 00:09:09;;;;;;;20.15;4.00;;;;;;;;;;4926946;28;23803;-64
2022/09/05 00:11:48;;;;;;;29.42;4.63;;;;;;;;;;4911385;28;20070;-64
2022/09/05 00:14:26;;;;;;;28.40;4.60;;;;;;;;;;4928095;28;20054;-65
2022/09/05 00:17:01;;;;;;;18.17;4.10;;;;;;;;;;4921450;28;20134;-64
2022/09/05 00:19:42;;;;;;;21.67;4.37;;;;;;;;;;4925119;28;20046;-64
2022/09/05 00:22:27;;;;;;;24.63;4.72;;;;;;;;;;4928431;28;20429;-65
2022/09/05 00:24:56;;;;;;;23.20;4.72;;;;;;;;;;4925863;28;20047;-65
2022/09/05 00:27:25;;;;;;;23.13;4.00;;;;;;;;;;4929306;28;20222;-64
2022/09/05 00:29:57;;;;;;;22.98;4.20;;;;;;;;;;4901919;28;20032;-64
2022/09/05 00:32:32;;;;;;;25.98;4.32;;;;;;;;;;4912215;29;20617;-65
2022/09/05 00:35:05;;;;;;;25.05;4.55;;;;;;;;;;5007848;28;20056;-64
2022/09/05 00:37:31;;;;;;;24.90;4.20;;;;;;;;;;5027829;28;20037;-64
2022/09/05 00:40:12;;;;;;;25.48;4.78;;;;;;;;;;5025338;28;20029;-64
2022/09/05 00:42:38;;;;;;;24.02;4.40;;;;;;;;;;4998423;28;20028;-64
2022/09/05 00:45:06;;;;;;;24.45;4.35;;;;;;;;;;5024833;28;20029;-64
2022/09/05 00:47:32;;;;;;;25.23;4.32;;;;;;;;;;5005504;28;20036;-64
2022/09/05 00:50:06;;;;;;;20.35;4.00;;;;;;;;;;5018958;28;20034;-64
2022/09/05 00:52:59;;;;;;;21.42;4.72;;;;;;;;;;5027307;28;20049;-64
2022/09/05 00:55:38;;;;;;;24.27;4.63;;;;;;;;;;5021579;28;20057;-64
2022/09/05 00:58:04;;;;;;;19.02;4.20;;;;;;;;;;5026791;28;20102;-63
2022/09/05 01:00:30;;;;;;;24.92;4.57;;;;;;;;;;5028834;28;21298;-64
2022/09/05 01:03:09;;;;;;;26.15;4.68;;;;;;;;;;5023202;28;20297;-65
2022/09/05 01:05:35;;;;;;;23.35;4.38;;;;;;;;;;5014252;28;20573;-64
2022/09/05 01:08:21;;;;;;;25.08;4.53;;;;;;;;;;5025444;28;20198;-64
2022/09/05 01:10:59;;;;;;;26.13;4.22;;;;;;;;;;5005412;28;20053;-65
2022/09/05 01:13:35;;;;;;;25.75;4.75;;;;;;;;;;5033264;28;20029;-64
2022/09/05 01:16:01;;;;;;;;;;;;;;;;;;5027020;28;20052;-64
2022/09/05 01:18:46;;;;;;;28.90;4.50;;;;;;;;;;5013189;28;19913;-64
2022/09/05 01:21:32;;;;;;;19.80;3.88;;;;;;;;;;5034051;28;20055;-64
2022/09/05 01:24:16;;;;;;;25.77;4.20;;;;;;;;;;5026142;28;20036;-64
2022/09/05 01:27:02;;;;;;;24.20;4.03;;;;;;;;;;5006328;28;20408;-64
2022/09/05 01:29:46;;;;;;;20.70;3.90;;;;;;;;;;5013813;28;20585;-64
2022/09/05 01:32:14;;;;;;;23.90;4.22;;;;;;;;;;5027977;28;20386;-64
2022/09/05 01:34:58;;;;;;;23.50;4.22;;;;;;;;;;5025878;28;20441;-66
2022/09/05 01:37:43;;;;;;;26.45;4.75;;;;;;;;;;5030567;28;20537;-64
2022/09/05 01:40:28;;;;;;;25.38;4.75;;;;;;;;;;5030978;28;20029;-64
2022/09/05 01:43:03;;;;;;;29.65;4.68;;;;;;;;;;5022903;28;20566;-64
2022/09/05 01:45:48;;;;;;;25.53;5.10;;;;;;;;;;5026527;28;20031;-64
2022/09/05 01:48:23;;;;;;;29.58;5.88;;;;;;;;;;5028744;28;20041;-64
2022/09/05 01:50:55;;;;;;;22.75;4.38;;;;;;;;;;5009372;28;20040;-64
2022/09/05 01:53:47;;;;;;;23.90;4.57;;;;;;;;;;5012032;28;20041;-64
2022/09/05 01:56:13;;;;;;;26.75;4.70;;;;;;;;;;4947653;28;20133;-64
2022/09/05 01:58:58;;;;;;;23.83;4.25;;;;;;;;;;4936893;28;20566;-63
2022/09/05 02:01:27;;;;;;;28.15;4.80;;;;;;;;;;4947948;28;20043;-64
2022/09/05 02:04:11;;;;;;;19.30;4.43;;;;;;;;;;4945591;28;20194;-64
2022/09/05 02:06:46;;;;;;;21.45;4.10;;;;;;;;;;4945262;28;20043;-63
2022/09/05 02:09:12;;;;;;;24.08;3.95;;;;;;;;;;4948311;28;20543;-64
2022/09/05 02:11:38;;;;;;;23.10;4.70;;;;;;;;;;4948381;28;20832;-64
2022/09/05 02:14:10;;;;;;;24.30;4.53;;;;;;;;;;4946508;28;20469;-64
2022/09/05 02:16:43;;;;;;;23.58;4.22;;;;;;;;;;4950161;28;20081;-64
2022/09/05 02:19:09;;;;;;;23.05;4.15;;;;;;;;;;4948609;28;20657;-64
2022/09/05 02:21:38;;;;;;;20.95;3.42;;;;;;;;;;4933125;28;20426;-64
2022/09/05 02:24:11;;;;;;;26.17;4.65;;;;;;;;;;4945661;28;20590;-64
2022/09/05 02:26:56;;;;;;;22.20;4.43;;;;;;;;;;4948511;28;20038;-64
2022/09/05 02:29:41;;;;;;;23.63;3.63;;;;;;;;;;4945101;28;20563;-64
2022/09/05 02:32:19;;;;;;;22.05;3.70;;;;;;;;;;4949395;28;20062;-64
2022/09/05 02:34:45;;;;;;;25.88;4.45;;;;;;;;;;5021940;28;20490;-64
2022/09/05 02:37:15;;;;;;;24.45;4.20;;;;;;;;;;5025208;28;20037;-63
2022/09/05 02:39:51;;;;;;;25.10;4.22;;;;;;;;;;5027278;28;20101;-67
2022/09/05 02:42:33;;;;;;;23.08;4.28;;;;;;;;;;5027908;28;20503;-65
2022/09/05 02:45:02;;;;;;;28.45;4.47;;;;;;;;;;5027516;28;20025;-64
2022/09/05 02:47:45;;;;;;;22.70;4.35;;;;;;;;;;5029707;28;20046;-64
2022/09/05 02:50:17;;;;;;;21.92;4.10;;;;;;;;;;5002310;28;20032;-64
2022/09/05 02:52:45;;;;;;;23.23;4.82;;;;;;;;;;5018542;28;20497;-64
2022/09/05 02:55:21;;;;;;;23.25;4.75;;;;;;;;;;5028143;28;20056;-63
2022/09/05 02:57:51;;;;;;;24.75;4.72;;;;;;;;;;5018133;28;20030;-64
2022/09/05 03:00:23;;;;;;;28.58;4.78;;;;;;;;;;5007424;28;20574;-64
2022/09/05 03:02:58;;;;;;;27.00;5.10;;;;;;;;;;5019331;28;20331;-64
2022/09/05 03:05:30;;;;;;;21.80;4.27;;;;;;;;;;5008318;28;20136;-64
2022/09/05 03:08:20;;;;;;;22.83;4.03;;;;;;;;;;5020665;28;20069;-64
2022/09/05 03:11:16;;;;;;;24.42;4.47;;;;;;;;;;5023048;28;20039;-64
2022/09/05 03:13:56;;;;;;;24.58;4.78;;;;;;;;;;4947809;28;20215;-64
2022/09/05 03:16:41;;;;;;;21.23;3.53;;;;;;;;;;4947311;28;20077;-64
2022/09/05 03:19:07;;;;;;;20.47;3.90;;;;;;;;;;4947539;28;20043;-64
2022/09/05 03:21:52;;;;;;;21.33;3.83;;;;;;;;;;4945726;28;20240;-64
2022/09/05 03:24:37;;;;;;;21.35;3.72;;;;;;;;;;4930217;28;20045;-65
2022/09/05 03:27:21;;;;;;;20.17;4.18;;;;;;;;;;4945478;28;20883;-64
2022/09/05 03:29:47;;;;;;;22.48;4.03;;;;;;;;;;4944482;28;20120;-64
2022/09/05 03:32:19;;;;;;;18.70;3.40;;;;;;;;;;4948972;28;20067;-64
2022/09/05 03:35:03;;;;;;;20.95;4.00;;;;;;;;;;4938144;28;20039;-64
2022/09/05 03:37:46;;;;;;;26.95;4.43;;;;;;;;;;4930951;28;20027;-63
2022/09/05 03:40:14;;;;;;;20.02;4.47;;;;;;;;;;4930312;28;20054;-63
2022/09/05 03:42:43;;;;;;;23.05;4.13;;;;;;;;;;4949217;28;20474;-64
2022/09/05 03:45:22;;;;;;;25.08;4.60;;;;;;;;;;4949789;28;20034;-64
2022/09/05 03:47:48;;;;;;;25.77;4.32;;;;;;;;;;4942187;28;20149;-64
2022/09/05 03:50:17;;;;;;;28.88;4.32;;;;;;;;;;4984386;28;20044;-64
2022/09/05 03:52:49;;;;;;;25.92;4.63;;;;;;;;;;4999289;28;20049;-63
2022/09/05 03:55:34;;;;;;;24.00;4.50;;;;;;;;;;5001992;28;20537;-63
2022/09/05 03:58:19;;;;;;;23.48;3.85;;;;;;;;;;5000801;28;20056;-64
2022/09/05 04:01:02;;;;;;;22.85;4.47;;;;;;;;;;5001080;28;20068;-63
2022/09/05 04:03:48;;;;;;;21.23;4.28;;;;;;;;;;5006690;28;20136;-65
2022/09/05 04:06:26;;;;;;;25.60;4.22;;;;;;;;;;4990043;28;20388;-63
2022/09/05 04:09:15;;;;;;;22.00;4.05;;;;;;;;;;4999030;28;20563;-64
2022/09/05 04:11:44;;;;;;;21.08;4.00;;;;;;;;;;5004747;28;20033;-64
2022/09/05 04:14:10;;;;;;;25.25;4.60;;;;;;;;;;5006630;28;20252;-64
2022/09/05 04:16:50;;;;;;;25.40;4.30;;;;;;;;;;5004320;28;20041;-63
2022/09/05 04:19:38;;;;;;;25.05;4.00;;;;;;;;;;4999856;28;20032;-64
2022/09/05 04:22:19;;;;;;;23.50;4.53;;;;;;;;;;5000859;28;20041;-64
2022/09/05 04:24:52;;;;;;;23.33;3.97;;;;;;;;;;5000964;28;20487;-63
2022/09/05 04:27:19;;;;;;;22.13;4.10;;;;;;;;;;5001425;28;20117;-63
2022/09/05 04:29:48;;;;;;;21.35;4.10;;;;;;;;;;5006131;28;20025;-63
2022/09/05 04:32:28;;;;;;;22.70;3.97;;;;;;;;;;5007760;28;20026;-63
2022/09/05 04:35:14;;;;;;;23.50;4.13;;;;;;;;;;5004779;28;20224;-63
2022/09/05 04:38:03;;;;;;;22.38;3.85;;;;;;;;;;5007247;28;20032;-63
2022/09/05 04:40:31;;;;;;;21.58;3.85;;;;;;;;;;4998838;28;20049;-63
2022/09/05 04:42:59;;;;;;;21.50;4.10;;;;;;;;;;4998538;28;20099;-63
2022/09/05 04:45:27;;;;;;;19.02;3.72;;;;;;;;;;5006304;28;20033;-65
2022/09/05 04:47:57;;;;;;;22.73;4.13;;;;;;;;;;4999803;28;20026;-63
2022/09/05 04:50:24;;;;;;;22.33;4.00;;;;;;;;;;5004976;28;20026;-63
2022/09/05 04:52:50;;;;;;;23.10;4.43;;;;;;;;;;5004459;28;20061;-63
2022/09/05 04:55:18;;;;;;;19.48;3.45;;;;;;;;;;5024259;28;20037;-65
2022/09/05 04:57:47;;;;;;;25.55;4.25;;;;;;;;;;5017230;28;20143;-63
2022/09/05 05:00:33;;;;;;;24.38;3.97;;;;;;;;;;5021064;28;20771;-64
2022/09/05 05:03:02;;;;;;;16.77;3.35;;;;;;;;;;5020638;28;20475;-64
2022/09/05 05:05:57;;;;;;;21.05;3.92;;;;;;;;;;5023246;28;20025;-64
2022/09/05 05:08:27;;;;;;;21.08;4.07;;;;;;;;;;4925755;28;20055;-64
2022/09/05 05:10:59;;;;;;;21.23;3.75;;;;;;;;;;4917172;28;20031;-63
2022/09/05 05:13:45;;;;;;;26.23;3.97;;;;;;;;;;4920053;28;20591;-64
2022/09/05 05:16:25;;;;;;;20.85;4.07;;;;;;;;;;4922982;28;20035;-64
2022/09/05 05:18:54;;;;;;;26.17;4.78;;;;;;;;;;4914308;28;20047;-64
2022/09/05 05:21:24;;;;;;;21.52;4.05;;;;;;;;;;4926680;28;20482;-64
2022/09/05 05:23:55;;;;;;;20.92;4.05;;;;;;;;;;4917805;28;20043;-65
2022/09/05 05:26:28;;;;;;;19.23;3.70;;;;;;;;;;4924357;28;20106;-63
2022/09/05 05:29:06;;;;;;;23.23;3.60;;;;;;;;;;4918133;28;20043;-63
2022/09/05 05:31:52;;;;;;;26.63;4.10;;;;;;;;;;4924160;28;20040;-63
2022/09/05 05:34:24;;;;;;;20.20;4.20;;;;;;;;;;4923604;28;20042;-64
2022/09/05 05:36:56;;;;;;;18.60;4.57;;;;;;;;;;4903799;28;20368;-64
2022/09/05 05:39:27;;;;;;;19.35;4.43;;;;;;;;;;4924540;28;20491;-63
2022/09/05 05:41:54;;;;;;;22.38;4.90;;;;;;;;;;4917301;28;20035;-64
2022/09/05 05:44:25;;;;;;;26.05;5.00;;;;;;;;;;4952008;28;20041;-64
2022/09/05 05:47:00;;;;;;;24.67;4.63;;;;;;;;;;5035734;28;20144;-64
2022/09/05 05:49:44;;;;;;;29.35;4.55;;;;;;;;;;5031138;28;20037;-64
2022/09/05 05:52:37;;;;;;;22.08;4.47;;;;;;;;;;5039047;28;20335;-64
2022/09/05 05:55:03;;;;;;;25.67;4.53;;;;;;;;;;5009136;28;22996;-64
2022/09/05 05:57:53;;;;;;;22.67;4.13;;;;;;;;;;5037832;28;20312;-64
2022/09/05 06:00:19;;;;;;;21.98;4.22;;;;;;;;;;5016870;28;20348;-64
2022/09/05 06:03:04;;;;;;;24.40;4.38;;;;;;;;;;5013567;28;20644;-64
2022/09/05 06:05:54;;;;;;;20.35;3.85;;;;;;;;;;5031079;28;20120;-64
2022/09/05 06:08:20;;;;;;;31.08;4.85;;;;;;;;;;5036674;28;20039;-64
2022/09/05 06:10:53;;;;;;;29.17;4.32;;;;;;;;;;5014346;28;20028;-64
2022/09/05 06:13:39;;;;;;;25.98;4.50;;;;;;;;;;5029518;28;20038;-64
2022/09/05 06:16:14;;;;;;;21.90;4.40;;;;;;;;;;5035625;28;20029;-63
2022/09/05 06:18:49;;;;;;;27.67;4.30;;;;;;;;;;5031442;28;20400;-64
2022/09/05 06:21:15;;;;;;;27.42;4.43;;;;;;;;;;5032784;28;20032;-64
2022/09/05 06:23:41;;;;;;;31.08;4.45;;;;;;;;;;5024558;28;20059;-63
2022/09/05 06:26:14;;;;;;;32.03;5.45;;;;;;;;;;5020955;28;20124;-64
2022/09/05 06:28:40;;;;;;;24.92;4.88;;;;;;;;;;5044002;28;20506;-63
2022/09/05 06:31:06;;;;;;;28.83;5.15;;;;;;;;;;5035076;28;20035;-63
2022/09/05 06:33:48;;;;;;;22.70;4.68;;;;;;;;;;5035486;28;20123;-63
2022/09/05 06:36:28;;;;;;;27.33;5.05;;;;;;;;;;5012509;28;20033;-64
2022/09/05 06:38:57;;;;;;;22.65;4.28;;;;;;;;;;5006911;28;20034;-63
2022/09/05 06:41:29;;;;;;;23.50;3.92;;;;;;;;;;5017718;28;20075;-64
2022/09/05 06:44:21;;;;;;;23.00;4.07;;;;;;;;;;5010161;28;20029;-64
2022/09/05 06:46:50;;;;;;;28.98;4.72;;;;;;;;;;5025088;28;20363;-64
2022/09/05 06:49:26;;;;;;;21.83;4.47;;;;;;;;;;5031380;28;20032;-63
2022/09/05 06:51:55;;;;;;;28.50;4.50;;;;;;;;;;5029537;28;20027;-64
2022/09/05 06:54:21;;;;;;;24.08;4.15;;;;;;;;;;5017466;28;20423;-66
2022/09/05 06:57:13;;;;;;;26.35;4.25;;;;;;;;;;5005159;28;20060;-64
2022/09/05 07:00:12;;;;;;;21.85;4.40;;;;;;;;;;5028385;28;20063;-65
2022/09/05 07:02:43;;;;;;;26.40;4.97;;;;;;;;;;4956896;28;20778;-65
2022/09/05 07:05:21;;;;;;;27.95;5.00;;;;;;;;;;4961183;28;20584;-65
2022/09/05 07:07:53;;;;;;;19.65;3.60;;;;;;;;;;4956734;28;20528;-66
2022/09/05 07:10:30;;;;;;;29.95;5.10;;;;;;;;;;4958609;28;20136;-65
2022/09/05 07:13:00;;;;;;;29.23;5.60;;;;;;;;;;4952110;28;20038;-63
2022/09/05 07:15:34;;;;;;;21.33;4.90;;;;;;;;;;4956364;28;20516;-63
2022/09/05 07:18:07;;;;;;;23.48;5.78;;;;;;;;;;4951977;28;20101;-64
2022/09/05 07:20:49;;;;;;;21.58;4.32;;;;;;;;;;4959141;28;20447;-64
2022/09/05 07:23:26;;;;;;;28.15;5.25;;;;;;;;;;4952448;28;20098;-63
2022/09/05 07:25:54;;;;;;;29.02;5.47;;;;;;;;;;4951193;28;20162;-65
2022/09/05 07:28:21;;;;;;;23.48;4.40;;;;;;;;;;4955422;28;20019;-65
2022/09/05 07:30:49;;;;;;;24.60;4.90;;;;;;;;;;4934086;28;20174;-63
2022/09/05 07:33:18;;;;;;;23.75;4.38;;;;;;;;;;4950701;28;20042;-65
2022/09/05 07:35:44;;;;;;;21.45;4.20;;;;;;;;;;4952413;28;20737;-65
2022/09/05 07:38:29;;;;;;;23.58;4.18;;;;;;;;;;4989574;28;20137;-64
2022/09/05 07:40:56;;;;;;;18.33;3.63;;;;;;;;;;5033177;28;20347;-65
2022/09/05 07:43:34;;;;;;;23.10;4.65;;;;;;;;;;5032184;28;20029;-65
2022/09/05 07:46:00;;;;;;;28.15;4.80;;;;;;;;;;5034964;28;20137;-65
2022/09/05 07:48:28;;;;;;;31.67;5.25;;;;;;;;;;5015598;28;20495;-65
2022/09/05 07:50:59;;;;;;;27.67;5.55;;;;;;;;;;5023070;28;20448;-64
2022/09/05 07:53:26;;;;;;;24.50;4.75;;;;;;;;;;5006878;28;20058;-64
2022/09/05 07:55:56;;;;;;;23.23;4.55;;;;;;;;;;5011664;28;20349;-64
2022/09/05 07:58:25;;;;;;;32.15;5.45;;;;;;;;;;5012310;28;20040;-64
2022/09/05 08:00:52;;;;;;;23.50;4.57;;;;;;;;;;5016966;28;20025;-65
2022/09/05 08:03:22;;;;;;;21.05;4.18;;;;;;;;;;5016056;28;20497;-65
2022/09/05 08:05:53;;;;;;;28.58;5.03;;;;;;;;;;5010726;28;20036;-65
2022/09/05 08:08:21;;;;;;;26.00;5.05;;;;;;;;;;5012389;28;20456;-63
2022/09/05 08:10:52;;;;;;;26.33;5.05;;;;;;;;;;5006224;28;20102;-63
2022/09/05 08:13:20;;;;;;;22.17;5.07;;;;;;;;;;5007711;28;20076;-64
2022/09/05 08:15:52;;;;;;;31.20;5.40;;;;;;;;;;5006004;28;20057;-64
2022/09/05 08:18:34;;;;;;;24.65;4.75;;;;;;;;;;5018216;28;20048;-64
2022/09/05 08:21:06;;;;;;;24.77;5.28;;;;;;;;;;5011074;28;20041;-64
2022/09/05 08:23:51;;;;;;;21.27;4.30;;;;;;;;;;5020221;28;20032;-64
2022/09/05 08:26:17;;;;;;;20.35;4.03;;;;;;;;;;5018487;28;20052;-64
2022/09/05 08:28:43;;;;;;;21.55;3.97;;;;;;;;;;5010850;28;20098;-64
2022/09/05 08:31:13;;;;;;;18.45;3.83;;;;;;;;;;5013787;28;20022;-64
2022/09/05 08:33:40;;;;;;;21.48;4.28;;;;;;;;;;5013751;28;20433;-64
2022/09/05 08:36:22;;;;;;;22.50;4.63;;;;;;;;;;5005042;28;20988;-65
2022/09/05 08:38:49;;;;;;;21.88;4.13;;;;;;;;;;5006982;28;20045;-64
2022/09/05 08:41:22;;;;;;;27.05;4.13;;;;;;;;;;5006467;28;20025;-63
2022/09/05 08:44:08;;;;;;;22.80;3.92;;;;;;;;;;5001999;28;20115;-66
2022/09/05 08:46:54;;;;;;;22.00;4.30;;;;;;;;;;5008791;28;20167;-64
2022/09/05 08:49:20;;;;;;;;;;;;;;;;;;5013246;28;20523;-64
2022/09/05 08:51:51;;;;;;;26.20;4.65;;;;;;;;;;5011294;28;19979;-64
2022/09/05 08:54:21;;;;;;;20.88;4.57;;;;;;;;;;5033413;28;20503;-65
2022/09/05 08:56:56;;;;;;;24.08;4.50;;;;;;;;;;5032396;28;20474;-66
2022/09/05 08:59:26;;;;;;;19.77;4.05;;;;;;;;;;5037015;28;20024;-65
2022/09/05 09:02:04;;;;;;;19.27;4.00;;;;;;;;;;5030093;28;20052;-64
2022/09/05 09:04:43;;;;;;;24.75;4.18;;;;;;;;;;5033743;28;20323;-64
2022/09/05 09:07:09;;;;;;;24.63;4.78;;;;;;;;;;5039096;28;20462;-65
2022/09/05 09:09:38;;;;;;;21.65;4.15;;;;;;;;;;5028077;28;20416;-64
2022/09/05 09:12:23;;;;;;;19.75;3.80;;;;;;;;;;5039523;28;20041;-68
2022/09/05 09:14:53;;;;;;;19.05;3.50;;;;;;;;;;5011091;28;20517;-65
2022/09/05 09:17:30;;;;;;;24.30;4.38;;;;;;;;;;5037519;28;20043;-65
2022/09/05 09:20:08;;;;;;;20.00;3.63;;;;;;;;;;5034202;28;20037;-64
2022/09/05 09:22:40;;;;;;;19.77;3.92;;;;;;;;;;5010413;28;20098;-64
2022/09/05 09:25:15;;;;;;;25.20;4.57;;;;;;;;;;5030547;28;20094;-64
2022/09/05 09:27:54;;;;;;;21.77;4.38;;;;;;;;;;5034168;28;20036;-64
2022/09/05 09:30:20;;;;;;;24.02;4.57;;;;;;;;;;5021248;28;20032;-65
2022/09/05 09:32:48;;;;;;;21.13;4.05;;;;;;;;;;5030773;28;20040;-65
2022/09/05 09:35:25;;;;;;;23.40;4.72;;;;;;;;;;5040318;28;20491;-64
2022/09/05 09:38:07;;;;;;;24.92;4.65;;;;;;;;;;5036484;28;20056;-64
2022/09/05 09:40:45;;;;;;;23.55;4.20;;;;;;;;;;5021061;28;20373;-65
2022/09/05 09:43:28;;;;;;;27.95;4.20;;;;;;;;;;5029135;28;20022;-63
2022/09/05 09:46:04;;;;;;;22.75;4.35;;;;;;;;;;5029187;28;20029;-63
2022/09/05 09:48:36;;;;;;;28.73;4.15;;;;;;;;;;5013484;28;20030;-65
2022/09/05 09:51:02;;;;;;;20.13;4.10;;;;;;;;;;5033644;28;20111;-65
2022/09/05 09:53:47;;;;;;;22.50;4.18;;;;;;;;;;5041772;28;21024;-65
2022/09/05 09:56:16;;;;;;;22.40;3.88;;;;;;;;;;5019204;28;20105;-66
2022/09/05 09:58:48;;;;;;;24.88;4.13;;;;;;;;;;5038400;28;20023;-65
2022/09/05 10:01:17;;;;;;;19.73;4.30;;;;;;;;;;5043601;28;20596;-64
2022/09/05 10:04:03;;;;;;;21.73;4.00;;;;;;;;;;5036911;28;20086;-66
2022/09/05 10:06:48;;;;;;;22.23;3.95;;;;;;;;;;5035031;28;20060;-65
2022/09/05 10:09:14;;;;;;;;;;;;;;;;;;5027460;28;20525;-66
2022/09/05 10:12:04;;;;;;;21.08;4.22;;;;;;;;;;5008600;28;20369;-67
2022/09/05 10:15:06;;;;;;;24.23;4.93;;;;;;;;;;4995034;28;20040;-68
2022/09/05 10:17:44;;;;;;;21.05;4.13;;;;;;;;;;4970481;28;20034;-66
2022/09/05 10:20:16;;;;;;;27.98;4.68;;;;;;;;;;4983333;28;20574;-65
2022/09/05 10:22:43;;;;;;;28.48;4.95;;;;;;;;;;4978344;28;20034;-66
2022/09/05 10:25:27;;;;;;;24.23;4.70;;;;;;;;;;4983688;28;20053;-65
2022/09/05 10:27:53;;;;;;;23.83;4.47;;;;;;;;;;4982795;28;20041;-65
2022/09/05 10:30:26;;;;;;;20.83;3.85;;;;;;;;;;4988107;28;20524;-66
2022/09/05 10:33:11;;;;;;;24.42;4.60;;;;;;;;;;4979935;28;20072;-66
2022/09/05 10:35:42;;;;;;;22.60;4.60;;;;;;;;;;4970331;28;20030;-66
2022/09/05 10:38:14;;;;;;;24.55;4.95;;;;;;;;;;4983236;28;20298;-66
2022/09/05 10:40:43;;;;;;;21.80;4.57;;;;;;;;;;4986886;28;20022;-66
2022/09/05 10:43:09;;;;;;;21.00;4.70;;;;;;;;;;4984138;28;20025;-67
2022/09/05 10:45:44;;;;;;;19.67;3.88;;;;;;;;;;4984658;28;20059;-67
2022/09/05 10:48:16;;;;;;;24.02;4.40;;;;;;;;;;4986001;28;20074;-67
2022/09/05 10:50:44;;;;;;;21.08;4.28;;;;;;;;;;4984722;28;20037;-67
2022/09/05 10:53:29;;;;;;;23.55;4.30;;;;;;;;;;5021122;28;20522;-67
2022/09/05 10:56:00;;;;;;;20.40;4.45;;;;;;;;;;5009161;28;20025;-67
2022/09/05 10:58:32;;;;;;;20.75;4.20;;;;;;;;;;5021745;28;20490;-65
2022/09/05 11:01:08;;;;;;;23.83;4.30;;;;;;;;;;5029408;28;20028;-66
2022/09/05 11:04:04;;;;;;;23.35;4.57;;;;;;;;;;5034092;28;20423;-66
2022/09/05 11:06:50;;;;;;;26.70;4.35;;;;;;;;;;4962937;28;20133;-66
2022/09/05 11:09:16;;;;;;;22.52;3.90;;;;;;;;;;4965236;28;20044;-66
2022/09/05 11:11:44;;;;;;;21.27;4.47;;;;;;;;;;4964970;28;20590;-66
2022/09/05 11:14:33;;;;;;;22.90;4.50;;;;;;;;;;4964567;28;20547;-66
2022/09/05 11:17:11;;;;;;;22.85;4.30;;;;;;;;;;4959550;28;20070;-66
2022/09/05 11:19:43;;;;;;;18.48;3.83;;;;;;;;;;4961447;28;20130;-67
2022/09/05 11:22:11;;;;;;;22.65;4.07;;;;;;;;;;4964657;28;20104;-66
2022/09/05 11:24:40;;;;;;;22.17;4.30;;;;;;;;;;4950247;28;20278;-65
2022/09/05 11:27:26;;;;;;;20.17;3.85;;;;;;;;;;4945694;28;20034;-64
2022/09/05 11:29:55;;;;;;;24.30;4.50;;;;;;;;;;4955338;28;20046;-67
2022/09/05 11:32:30;;;;;;;21.33;4.50;;;;;;;;;;4960901;28;20037;-66
2022/09/05 11:34:56;;;;;;;;;;;;;;;;;;4959271;28;20049;-66
2022/09/05 11:37:22;;;;;;;26.02;4.65;;;;;;;;;;4946697;28;20027;-64
2022/09/05 11:40:07;;;;;;;19.88;4.00;;;;;;;;;;4961496;28;20033;-66
2022/09/05 11:42:33;;;;;;;24.45;5.00;;;;;;;;;;4987517;28;20040;-67
2022/09/05 11:45:11;;;;;;;20.92;4.80;;;;;;;;;;5028171;28;20037;-67
2022/09/05 11:47:50;;;;;;;28.40;4.90;;;;;;;;;;5038762;28;20502;-66
2022/09/05 11:50:34;;;;;;;25.08;4.60;;;;;;;;;;5029328;28;20024;-66
2022/09/05 11:53:21;;;;;;;26.25;4.97;;;;;;;;;;5005228;28;20152;-67
2022/09/05 11:55:53;;;;;;;21.42;4.40;;;;;;;;;;5001378;28;20075;-67
2022/09/05 11:58:20;;;;;;;15.80;4.22;;;;;;;;;;5009592;28;20390;-68
2022/09/05 12:01:01;;;;;;;22.95;4.60;;;;;;;;;;5013493;28;20037;-67
2022/09/05 12:03:36;;;;;;;20.95;4.43;;;;;;;;;;5007589;28;20059;-66
2022/09/05 12:06:26;;;;;;;21.38;4.30;;;;;;;;;;5006634;28;21734;-66
2022/09/05 12:08:55;;;;;;;20.67;4.22;;;;;;;;;;4997535;28;20449;-67
2022/09/05 12:11:24;;;;;;;24.45;5.03;;;;;;;;;;5014085;28;20037;-66
2022/09/05 12:13:56;;;;;;;20.13;4.25;;;;;;;;;;5022217;28;20410;-67
2022/09/05 12:16:29;;;;;;;22.35;4.43;;;;;;;;;;5018615;28;20762;-66
2022/09/05 12:19:15;;;;;;;23.65;4.47;;;;;;;;;;5011098;28;20030;-67
2022/09/05 12:21:44;;;;;;;23.00;4.45;;;;;;;;;;5013152;28;20379;-67
2022/09/05 12:24:19;;;;;;;24.88;4.60;;;;;;;;;;5011862;28;20428;-67
2022/09/05 12:26:54;;;;;;;20.25;3.97;;;;;;;;;;5012719;28;20039;-67
2022/09/05 12:29:23;;;;;;;21.52;4.85;;;;;;;;;;5008242;28;20391;-66
2022/09/05 12:31:57;;;;;;;21.25;4.40;;;;;;;;;;5009459;28;20399;-66
2022/09/05 12:34:33;;;;;;;21.25;4.40;;;;;;;;;;5008529;28;20037;-66
2022/09/05 12:37:01;;;;;;;20.75;4.80;;;;;;;;;;5009681;28;20029;-66
2022/09/05 12:39:27;;;;;;;18.73;4.22;;;;;;;;;;5008660;28;20407;-66
2022/09/05 12:42:06;;;;;;;21.27;4.50;;;;;;;;;;5018525;28;20064;-67
2022/09/05 12:44:47;;;;;;;23.95;5.68;;;;;;;;;;5021797;28;20029;-67
2022/09/05 12:47:16;;;;;;;20.67;4.25;;;;;;;;;;5016880;28;20021;-67
2022/09/05 12:49:45;;;;;;;26.52;5.22;;;;;;;;;;5014458;28;20506;-67
2022/09/05 12:52:14;;;;;;;20.52;4.50;;;;;;;;;;5011795;28;20160;-67
2022/09/05 12:54:49;;;;;;;20.20;4.45;;;;;;;;;;5033212;28;20211;-67
2022/09/05 12:57:18;;;;;;;22.00;4.65;;;;;;;;;;5036231;28;20032;-67
2022/09/05 12:59:46;;;;;;;20.75;4.40;;;;;;;;;;5027555;28;20360;-66
2022/09/05 13:02:16;;;;;;;21.65;4.70;;;;;;;;;;5027089;28;20021;-66
2022/09/05 13:04:52;;;;;;;23.35;4.65;;;;;;;;;;5019195;28;20029;-66
2022/09/05 13:07:23;;;;;;;23.80;4.57;;;;;;;;;;5035152;28;20455;-67
2022/09/05 13:09:58;;;;;;;21.98;4.63;;;;;;;;;;5028635;28;20029;-67
2022/09/05 13:12:30;;;;;;;18.92;4.22;;;;;;;;;;5040413;28;20530;-67
2022/09/05 13:15:07;;;;;;;19.58;4.63;;;;;;;;;;5034519;28;20391;-67
2022/09/05 13:17:43;;;;;;;22.75;4.72;;;;;;;;;;5033475;28;20397;-67
2022/09/05 13:20:15;;;;;;;23.17;4.90;;;;;;;;;;5038875;28;20574;-66
2022/09/05 13:22:45;;;;;;;20.08;4.28;;;;;;;;;;5034309;28;20743;-66
2022/09/05 13:25:22;;;;;;;27.70;5.72;;;;;;;;;;5023736;28;20098;-67
2022/09/05 13:27:55;;;;;;;23.92;4.85;;;;;;;;;;5031431;28;20111;-68
2022/09/05 13:30:23;;;;;;;21.50;4.80;;;;;;;;;;5043012;28;20489;-67
2022/09/05 13:32:50;;;;;;;21.45;4.43;;;;;;;;;;5016151;28;20024;-67
2022/09/05 13:35:20;;;;;;;20.20;4.47;;;;;;;;;;5040981;28;20028;-67
2022/09/05 13:37:49;;;;;;;18.75;4.05;;;;;;;;;;5032523;28;20072;-67
2022/09/05 13:40:21;;;;;;;19.23;4.25;;;;;;;;;;5033311;28;20024;-66
2022/09/05 13:43:05;;;;;;;22.55;4.97;;;;;;;;;;5033167;28;20030;-66
2022/09/05 13:45:34;;;;;;;21.13;4.55;;;;;;;;;;5032861;28;20387;-66
2022/09/05 13:48:00;;;;;;;29.23;5.03;;;;;;;;;;5011400;28;20033;-67
2022/09/05 13:50:38;;;;;;;27.02;5.10;;;;;;;;;;5010048;28;20483;-67
2022/09/05 13:53:09;;;;;;;27.90;5.50;;;;;;;;;;5029284;28;20053;-70
2022/09/05 13:55:52;;;;;;;21.27;4.38;;;;;;;;;;5031758;28;20029;-68
2022/09/05 13:58:40;;;;;;;27.13;5.40;;;;;;;;;;5016830;28;20047;-67
2022/09/05 14:01:06;;;;;;;21.42;4.95;;;;;;;;;;5006586;28;20432;-66
2022/09/05 14:03:39;;;;;;;32.17;5.22;;;;;;;;;;5035285;28;20107;-68
2022/09/05 14:06:24;;;;;;;23.27;5.13;;;;;;;;;;5009452;28;20049;-66
2022/09/05 14:09:02;;;;;;;20.33;4.57;;;;;;;;;;5025324;28;20043;-69
2022/09/05 14:11:36;;;;;;;21.50;4.80;;;;;;;;;;5035283;28;20123;-70
2022/09/05 14:14:24;;;;;;;25.13;4.70;;;;;;;;;;5029335;28;20045;-66
2022/09/05 14:16:59;;;;;;;24.85;4.70;;;;;;;;;;5026270;28;20028;-67
2022/09/05 14:22:37;;;;;;;24.95;4.88;;;;;;;;;;4997210;28;20029;-67
2022/09/05 14:25:03;;;;;;;;;;;;;;;;;;5024776;28;20036;-68
2022/09/05 14:27:29;;;;;;;22.60;5.20;;;;;;;;;;5035390;28;19948;-67
2022/09/05 14:29:56;;;;;;;23.05;5.00;;;;;;;;;;5033793;28;20074;-66
2022/09/05 14:32:22;;;;;;;21.38;4.93;;;;;;;;;;5037577;28;20398;-65
2022/09/05 14:35:00;;;;;;;18.60;4.03;;;;;;;;;;5032006;28;20036;-66
2022/09/05 14:37:45;;;;;;;18.13;3.88;;;;;;;;;;5033632;28;20126;-65
2022/09/05 14:40:29;;;;;;;15.95;3.42;;;;;;;;;;5028072;28;20099;-64
2022/09/05 14:42:57;;;;;;;17.00;3.95;;;;;;;;;;5026455;28;20443;-66
2022/09/05 14:45:23;;;;;;;18.77;3.75;;;;;;;;;;5013038;28;20438;-66
2022/09/05 14:48:04;;;;;;;18.67;4.07;;;;;;;;;;5016446;28;20390;-67
2022/09/05 14:50:37;;;;;;;16.55;3.85;;;;;;;;;;5032950;28;20021;-66
2022/09/05 14:53:15;;;;;;;23.20;4.22;;;;;;;;;;5031735;28;20284;-64
2022/09/05 14:56:10;;;;;;;19.70;3.97;;;;;;;;;;5033243;28;20728;-66
2022/09/05 14:58:37;;;;;;;19.60;3.58;;;;;;;;;;4949066;28;20170;-66
2022/09/05 15:01:05;;;;;;;17.05;3.28;;;;;;;;;;4941880;28;20057;-67
2022/09/05 15:03:35;;;;;;;16.38;3.75;;;;;;;;;;4946849;28;20418;-66
2022/09/05 15:06:12;;;;;;;18.80;3.78;;;;;;;;;;4945532;28;20073;-66
2022/09/05 15:08:39;;;;;;;14.23;3.58;;;;;;;;;;4928714;28;20362;-65
2022/09/05 15:11:09;;;;;;;20.67;3.97;;;;;;;;;;4946752;28;20031;-65
2022/09/05 15:13:37;;;;;;;22.27;3.22;;;;;;;;;;4956622;28;20038;-69
2022/09/05 15:16:08;;;;;;;18.52;4.05;;;;;;;;;;4938827;28;20047;-65
2022/09/05 15:18:39;;;;;;;16.02;3.15;;;;;;;;;;4953254;28;20718;-65